createdAt,value
2019-01-23T00:02:28.529Z,-5.20
2019-01-23T00:04:59.483Z,-5.09
2019-01-23T00:07:30.403Z,-5.08
2019-01-23T00:10:01.297Z,-5.00
2019-01-23T00:12:32.249Z,-4.82
2019-01-23T00:15:03.142Z,-4.79
2019-01-23T00:17:34.030Z,-4.90
2019-01-23T00:20:05.635Z,-4.91
2019-01-23T00:22:36.537Z,-4.88
2019-01-23T00:25:07.851Z,-4.88
2019-01-23T00:27:38.854Z,-4.94
2019-01-23T00:30:10.010Z,-4.93
2019-01-23T00:32:40.897Z,-5.15
2019-01-23T00:35:12.055Z,-5.05
2019-01-23T00:37:42.995Z,-5.11
2019-01-23T00:40:14.183Z,-5.15
2019-01-23T00:42:45.132Z,-5.15
2019-01-23T00:45:17.319Z,-5.24
2019-01-23T00:47:48.219Z,-5.23
2019-01-23T00:50:19.267Z,-5.35
2019-01-23T00:52:50.159Z,-5.49
2019-01-23T00:55:21.103Z,-5.58
2019-01-23T00:57:52.047Z,-5.88
2019-01-23T01:00:25.658Z,-5.96
2019-01-23T01:02:57.421Z,-5.81
2019-01-23T01:05:28.318Z,-5.93
2019-01-23T01:07:59.219Z,-5.90
2019-01-23T01:10:30.197Z,-5.93
2019-01-23T01:13:01.093Z,-5.85
2019-01-23T01:15:32.274Z,-5.94
2019-01-23T01:18:03.292Z,-5.99
2019-01-23T01:20:34.194Z,-6.02
2019-01-23T01:23:05.096Z,-6.08
2019-01-23T01:25:36.044Z,-6.11
2019-01-23T01:28:07.108Z,-6.18
2019-01-23T01:30:38.010Z,-6.23
2019-01-23T01:33:08.999Z,-6.30
2019-01-23T01:35:40.201Z,-6.34
2019-01-23T01:38:11.162Z,-6.34
2019-01-23T01:40:42.157Z,-6.38
2019-01-23T01:43:13.054Z,-6.48
2019-01-23T01:45:43.966Z,-6.47
2019-01-23T01:48:14.930Z,-6.37
2019-01-23T01:50:46.176Z,-6.43
2019-01-23T01:53:17.164Z,-6.12
2019-01-23T01:55:48.144Z,-6.39
2019-01-23T01:58:19.118Z,-6.52
2019-01-23T02:00:50.020Z,-6.52
2019-01-23T02:03:21.034Z,-6.57
2019-01-23T02:05:51.944Z,-6.59
2019-01-23T02:08:23.161Z,-6.59
2019-01-23T02:10:54.496Z,-6.52
2019-01-23T02:13:25.408Z,-6.47
2019-01-23T02:15:56.352Z,-6.39
2019-01-23T02:18:27.446Z,-6.40
2019-01-23T02:20:58.474Z,-6.28
2019-01-23T02:23:29.379Z,-6.17
2019-01-23T02:26:00.335Z,-6.17
2019-01-23T02:28:31.227Z,-6.19
2019-01-23T02:31:02.409Z,-6.25
2019-01-23T02:33:33.331Z,-6.33
2019-01-23T02:36:04.226Z,-6.40
2019-01-23T02:38:35.163Z,-6.44
2019-01-23T02:41:06.129Z,-6.49
2019-01-23T02:43:37.029Z,-6.51
2019-01-23T02:46:07.934Z,-6.57
2019-01-23T02:48:38.882Z,-6.62
2019-01-23T02:51:09.787Z,-6.55
2019-01-23T02:53:40.978Z,-6.44
2019-01-23T02:56:11.929Z,-6.52
2019-01-23T02:58:42.821Z,-6.64
2019-01-23T03:01:13.726Z,-6.60
2019-01-23T03:03:44.665Z,-6.54
2019-01-23T03:06:15.571Z,-6.60
2019-01-23T03:08:46.466Z,-6.63
2019-01-23T03:11:17.478Z,-6.67
2019-01-23T03:13:48.525Z,-6.72
2019-01-23T03:16:19.439Z,-6.71
2019-01-23T03:18:50.484Z,-6.83
2019-01-23T03:21:21.450Z,-6.76
2019-01-23T03:23:52.549Z,-6.78
2019-01-23T03:26:23.501Z,-6.84
2019-01-23T03:28:54.406Z,-6.88
2019-01-23T03:31:25.672Z,-6.90
2019-01-23T03:33:56.714Z,-6.95
2019-01-23T03:36:27.605Z,-6.97
2019-01-23T03:38:58.512Z,-6.98
2019-01-23T03:41:29.476Z,-7.05
2019-01-23T03:44:00.747Z,-7.05
2019-01-23T03:46:31.657Z,-7.12
2019-01-23T03:49:02.594Z,-7.13
2019-01-23T03:51:33.790Z,-7.07
2019-01-23T03:54:04.994Z,-7.17
2019-01-23T03:56:36.012Z,-7.15
2019-01-23T03:59:07.009Z,-7.24
2019-01-23T04:01:37.908Z,-7.19
2019-01-23T04:04:09.056Z,-7.18
2019-01-23T04:06:39.949Z,-7.18
2019-01-23T04:09:11.084Z,-7.12
2019-01-23T04:11:42.354Z,-7.11
2019-01-23T04:14:13.570Z,-7.08
2019-01-23T04:16:44.457Z,-7.10
2019-01-23T04:19:15.412Z,-7.12
2019-01-23T04:21:46.388Z,-7.11
2019-01-23T04:24:17.294Z,-7.03
2019-01-23T04:26:48.540Z,-7.03
2019-01-23T04:29:19.508Z,-7.06
2019-01-23T04:31:50.413Z,-6.95
2019-01-23T04:34:21.367Z,-7.03
2019-01-23T04:36:52.268Z,-7.02
2019-01-23T04:39:23.238Z,-7.03
2019-01-23T04:41:54.313Z,-6.83
2019-01-23T04:44:25.508Z,-6.96
2019-01-23T04:46:56.402Z,-6.98
2019-01-23T04:49:27.340Z,-6.98
2019-01-23T04:52:05.742Z,-7.05
2019-01-23T04:54:36.807Z,-7.04
2019-01-23T04:57:07.748Z,-7.03
2019-01-23T04:59:38.663Z,-6.98
2019-01-23T05:02:09.606Z,-7.00
2019-01-23T05:04:40.584Z,-6.97
2019-01-23T05:07:11.491Z,-6.98
2019-01-23T05:09:42.437Z,-7.07
2019-01-23T05:12:13.352Z,-7.01
2019-01-23T05:14:44.852Z,-7.12
2019-01-23T05:17:15.801Z,-7.15
2019-01-23T05:19:46.700Z,-7.16
2019-01-23T05:22:17.650Z,-7.16
2019-01-23T05:24:48.904Z,-7.11
2019-01-23T05:27:19.967Z,-7.05
2019-01-23T05:29:55.055Z,-6.95
2019-01-23T05:32:23.531Z,-7.05
2019-01-23T05:34:55.079Z,-7.08
2019-01-23T05:37:26.028Z,-7.00
2019-01-23T05:39:57.016Z,-6.88
2019-01-23T05:42:28.071Z,-6.98
2019-01-23T05:44:59.218Z,-7.01
2019-01-23T05:47:30.396Z,-6.92
2019-01-23T05:50:01.296Z,-6.75
2019-01-23T05:52:32.258Z,-6.87
2019-01-23T05:55:03.752Z,-6.93
2019-01-23T05:57:34.646Z,-6.95
2019-01-23T06:00:08.558Z,-7.01
2019-01-23T06:02:39.747Z,-7.01
2019-01-23T06:05:11.674Z,-6.92
2019-01-23T06:07:42.624Z,-6.92
2019-01-23T06:10:14.147Z,-6.89
2019-01-23T06:12:45.346Z,-6.95
2019-01-23T06:15:16.701Z,-7.04
2019-01-23T06:17:47.677Z,-7.06
2019-01-23T06:20:20.286Z,-7.02
2019-01-23T06:22:51.849Z,-7.00
2019-01-23T06:25:22.864Z,-7.01
2019-01-23T06:27:53.756Z,-6.93
2019-01-23T06:30:26.927Z,-6.89
2019-01-23T06:32:58.137Z,-6.81
2019-01-23T06:35:29.385Z,-6.72
2019-01-23T06:38:00.371Z,-6.76
2019-01-23T06:40:32.398Z,-6.79
2019-01-23T06:43:03.343Z,-6.69
2019-01-23T06:45:34.656Z,-6.81
2019-01-23T06:48:05.673Z,-6.73
2019-01-23T06:50:36.569Z,-6.95
2019-01-23T06:53:13.823Z,-7.09
2019-01-23T06:55:40.421Z,-7.08
2019-01-23T06:58:11.680Z,-7.06
2019-01-23T07:00:42.967Z,-7.13
2019-01-23T07:03:13.915Z,-7.09
2019-01-23T07:05:44.879Z,-7.22
2019-01-23T07:08:15.785Z,-7.02
2019-01-23T07:10:46.697Z,-7.08
2019-01-23T07:13:17.642Z,-7.19
2019-01-23T07:15:48.566Z,-7.26
2019-01-23T07:18:19.491Z,-7.26
2019-01-23T07:20:50.723Z,-7.20
2019-01-23T07:23:21.705Z,-7.28
2019-01-23T07:25:52.606Z,-7.14
2019-01-23T07:28:23.535Z,-6.93
2019-01-23T07:30:54.444Z,-6.83
2019-01-23T07:33:25.324Z,-7.05
2019-01-23T07:35:56.272Z,-6.93
2019-01-23T07:38:27.184Z,-6.88
2019-01-23T07:40:58.167Z,-6.83
2019-01-23T07:43:29.123Z,-6.71
2019-01-23T07:46:00.434Z,-6.77
2019-01-23T07:48:31.462Z,-6.80
2019-01-23T07:51:02.416Z,-6.72
2019-01-23T07:53:33.610Z,-6.79
2019-01-23T07:56:04.607Z,-6.90
2019-01-23T07:58:35.566Z,-6.74
2019-01-23T08:01:06.487Z,-6.76
2019-01-23T08:03:37.692Z,-6.75
2019-01-23T08:06:08.684Z,-6.72
2019-01-23T08:08:39.582Z,-6.76
2019-01-23T08:11:10.501Z,-6.75
2019-01-23T08:13:41.518Z,-6.62
2019-01-23T08:16:12.499Z,-6.58
2019-01-23T08:18:43.407Z,-6.65
2019-01-23T08:21:14.484Z,-6.51
2019-01-23T08:23:45.697Z,-6.40
2019-01-23T08:26:17.020Z,-6.33
2019-01-23T08:28:47.954Z,-6.16
2019-01-23T08:31:18.903Z,-6.00
2019-01-23T08:33:49.933Z,-5.96
2019-01-23T08:36:20.867Z,-5.77
2019-01-23T08:39:10.675Z,-5.62
2019-01-23T08:41:41.887Z,-5.59
2019-01-23T08:44:12.822Z,-5.53
2019-01-23T08:46:43.776Z,-5.30
2019-01-23T08:49:15.080Z,-5.53
2019-01-23T08:51:46.323Z,-5.61
2019-01-23T08:54:17.285Z,-5.50
2019-01-23T08:56:48.185Z,-5.43
2019-01-23T08:59:19.095Z,-5.56
2019-01-23T09:01:50.346Z,-5.40
2019-01-23T09:04:21.351Z,-5.48
2019-01-23T09:06:53.599Z,-5.28
2019-01-23T09:09:24.909Z,-5.49
2019-01-23T09:11:55.856Z,-5.50
2019-01-23T09:14:26.937Z,-5.62
2019-01-23T09:16:57.846Z,-5.73
2019-01-23T09:19:28.758Z,-5.87
2019-01-23T09:22:00.014Z,-5.87
2019-01-23T09:24:30.956Z,-5.95
2019-01-23T09:27:01.882Z,-5.81
2019-01-23T09:29:32.839Z,-5.73
2019-01-23T09:33:14.000Z,-5.90
2019-01-23T09:36:21.621Z,-5.73
2019-01-23T09:39:44.776Z,-5.77
2019-01-23T09:43:05.978Z,-5.80
2019-01-23T09:46:42.071Z,-5.68
2019-01-23T09:49:47.683Z,-5.45
2019-01-23T09:53:12.100Z,-5.62
2019-01-23T09:55:43.556Z,-5.29
2019-01-23T09:58:14.575Z,-5.35
2019-01-23T10:00:45.590Z,-5.31
2019-01-23T10:03:22.805Z,-5.28
2019-01-23T10:05:49.471Z,-5.27
2019-01-23T10:08:20.445Z,-4.92
2019-01-23T10:10:51.407Z,-5.16
2019-01-23T10:13:22.355Z,-5.14
2019-01-23T10:16:13.565Z,-5.16
2019-01-23T10:18:44.563Z,-5.12
2019-01-23T10:21:16.288Z,-5.31
2019-01-23T10:23:47.287Z,-5.25
2019-01-23T10:26:18.228Z,-5.24
2019-01-23T10:28:49.190Z,-5.15
2019-01-23T10:31:20.173Z,-4.97
2019-01-23T10:33:51.104Z,-4.86
2019-01-23T10:36:22.074Z,-4.86
2019-01-23T10:38:53.340Z,-4.67
2019-01-23T10:41:24.310Z,-4.71
2019-01-23T10:43:56.652Z,-4.98
2019-01-23T10:46:27.645Z,-4.83
2019-01-23T10:48:58.602Z,-4.89
2019-01-23T10:51:29.561Z,-4.57
2019-01-23T10:54:00.591Z,-4.48
2019-01-23T10:56:31.573Z,-4.31
2019-01-23T10:59:02.820Z,-3.90
2019-01-23T11:01:34.135Z,-3.87
2019-01-23T11:04:05.351Z,-3.77
2019-01-23T11:06:36.357Z,-4.04
2019-01-23T11:09:10.026Z,-4.11
2019-01-23T11:11:40.989Z,-3.87
2019-01-23T11:14:11.904Z,-4.01
2019-01-23T11:16:42.956Z,-4.15
2019-01-23T11:19:13.894Z,-4.04
2019-01-23T11:21:45.148Z,-4.32
2019-01-23T11:24:16.407Z,-4.40
2019-01-23T11:26:47.326Z,-4.31
2019-01-23T11:29:18.243Z,-4.34
2019-01-23T11:31:49.317Z,-4.06
2019-01-23T11:34:20.217Z,-3.99
2019-01-23T11:36:51.445Z,-3.92
2019-01-23T11:39:22.625Z,-3.84
2019-01-23T11:41:53.652Z,-3.61
2019-01-23T11:44:24.581Z,-3.66
2019-01-23T11:46:55.653Z,-3.58
2019-01-23T11:49:26.616Z,-3.35
2019-01-23T11:51:57.575Z,-3.42
2019-01-23T11:54:28.765Z,-3.46
2019-01-23T11:56:59.667Z,-3.59
2019-01-23T11:59:30.661Z,-3.44
2019-01-23T12:02:01.779Z,-3.20
2019-01-23T12:04:32.810Z,-3.15
2019-01-23T12:07:03.736Z,-3.28
2019-01-23T12:09:34.711Z,-3.37
2019-01-23T12:12:05.748Z,-3.43
2019-01-23T12:14:37.062Z,-3.41
2019-01-23T12:17:08.039Z,-3.23
2019-01-23T12:19:38.993Z,-2.99
2019-01-23T12:22:10.134Z,-3.20
2019-01-23T12:24:41.097Z,-3.22
2019-01-23T12:27:12.370Z,-3.13
2019-01-23T12:29:43.302Z,-3.39
2019-01-23T12:32:14.579Z,-3.43
2019-01-23T12:34:45.529Z,-3.63
2019-01-23T12:37:16.474Z,-3.46
2019-01-23T12:39:47.455Z,-3.59
2019-01-23T12:42:18.387Z,-3.26
2019-01-23T12:44:49.282Z,-3.21
2019-01-23T12:47:20.272Z,-3.06
2019-01-23T12:49:51.169Z,-2.87
2019-01-23T12:52:22.251Z,-2.99
2019-01-23T12:54:53.550Z,-2.86
2019-01-23T12:57:24.501Z,-2.94
2019-01-23T12:59:55.452Z,-3.01
2019-01-23T13:02:26.467Z,-2.82
2019-01-23T13:04:57.460Z,-2.79
2019-01-23T13:07:28.654Z,-2.83
2019-01-23T13:09:59.626Z,-2.86
2019-01-23T13:12:31.681Z,-2.88
2019-01-23T13:15:02.898Z,-2.90
2019-01-23T13:17:33.927Z,-3.14
2019-01-23T13:20:06.484Z,-2.92
2019-01-23T13:22:37.388Z,-3.01
2019-01-23T13:25:12.329Z,-3.09
2019-01-23T13:27:43.532Z,-3.02
2019-01-23T13:30:18.129Z,-2.95
2019-01-23T13:32:49.343Z,-3.03
2019-01-23T13:35:29.860Z,-3.28
2019-01-23T13:38:01.038Z,-3.25
2019-01-23T13:40:35.417Z,-3.26
2019-01-23T13:43:08.331Z,-3.41
2019-01-23T13:45:39.234Z,-3.43
2019-01-23T13:48:11.816Z,-3.18
2019-01-23T13:50:42.823Z,-3.32
2019-01-23T13:53:16.137Z,-3.37
2019-01-23T13:55:47.095Z,-3.26
2019-01-23T13:58:18.654Z,-3.31
2019-01-23T14:00:49.698Z,-3.16
2019-01-23T14:03:36.439Z,-3.24
2019-01-23T14:06:07.504Z,-3.26
2019-01-23T14:08:38.447Z,-3.24
2019-01-23T14:11:09.416Z,-3.65
2019-01-23T14:13:40.447Z,-3.35
2019-01-23T14:16:11.474Z,-3.61
2019-01-23T14:18:42.390Z,-3.48
2019-01-23T14:21:13.368Z,-3.51
2019-01-23T14:23:44.312Z,-3.47
2019-01-23T14:26:15.296Z,-3.51
2019-01-23T14:28:46.289Z,-3.66
2019-01-23T14:31:17.199Z,-3.75
2019-01-23T14:33:48.141Z,-3.72
2019-01-23T14:36:19.099Z,-3.68
2019-01-23T14:38:50.040Z,-3.93
2019-01-23T14:41:20.944Z,-3.74
2019-01-23T14:43:51.923Z,-3.82
2019-01-23T14:46:22.921Z,-3.93
2019-01-23T14:48:53.854Z,-4.05
2019-01-23T14:51:24.871Z,-3.96
2019-01-23T14:53:55.785Z,-3.82
2019-01-23T14:56:28.577Z,-3.89
2019-01-23T14:58:59.592Z,-3.96
2019-01-23T15:01:30.518Z,-4.19
2019-01-23T15:04:01.500Z,-4.18
2019-01-23T15:06:32.594Z,-4.17
2019-01-23T15:09:05.313Z,-4.22
2019-01-23T15:11:36.560Z,-4.18
2019-01-23T15:14:07.889Z,-4.35
2019-01-23T15:16:38.849Z,-4.34
2019-01-23T15:19:10.100Z,-4.39
2019-01-23T15:21:41.091Z,-4.18
2019-01-23T15:24:12.008Z,-4.19
2019-01-23T15:26:43.591Z,-4.30
2019-01-23T15:29:14.524Z,-4.20
2019-01-23T15:31:45.431Z,-4.22
2019-01-23T15:34:16.394Z,-4.11
2019-01-23T15:36:47.332Z,-4.16
2019-01-23T15:39:18.373Z,-4.15
2019-01-23T15:41:49.485Z,-4.14
2019-01-23T15:44:20.450Z,-4.23
2019-01-23T15:46:51.428Z,-4.22
2019-01-23T15:49:22.747Z,-4.36
2019-01-23T15:51:53.704Z,-4.37
2019-01-23T15:54:24.844Z,-4.27
2019-01-23T15:56:55.878Z,-4.32
2019-01-23T15:59:27.181Z,-4.35
2019-01-23T16:01:58.157Z,-4.27
2019-01-23T16:04:29.156Z,-4.28
2019-01-23T16:07:00.694Z,-4.40
2019-01-23T16:09:31.609Z,-4.36
2019-01-23T16:12:02.597Z,-4.23
2019-01-23T16:14:33.533Z,-4.37
2019-01-23T16:17:05.092Z,-4.42
2019-01-23T16:19:36.349Z,-4.35
2019-01-23T16:22:07.275Z,-4.28
2019-01-23T16:24:38.872Z,-4.22
2019-01-23T16:27:09.861Z,-4.16
2019-01-23T16:29:41.083Z,-4.24
2019-01-23T16:32:12.371Z,-4.19
2019-01-23T16:34:43.392Z,-4.01
2019-01-23T16:37:14.541Z,-4.06
2019-01-23T16:39:45.527Z,-3.94
2019-01-23T16:42:16.450Z,-4.26
2019-01-23T16:44:47.426Z,-4.06
2019-01-23T16:47:18.591Z,-4.13
2019-01-23T16:49:49.542Z,-3.96
2019-01-23T16:52:20.875Z,-4.04
2019-01-23T16:54:51.897Z,-4.12
2019-01-23T16:57:23.266Z,-4.07
2019-01-23T16:59:54.963Z,-3.95
2019-01-23T17:02:25.955Z,-3.96
2019-01-23T17:04:56.971Z,-4.01
2019-01-23T17:07:29.020Z,-3.75
2019-01-23T17:09:59.956Z,-3.96
2019-01-23T17:12:31.068Z,-3.93
2019-01-23T17:15:02.078Z,-4.04
2019-01-23T17:17:33.133Z,-4.20
2019-01-23T17:20:04.210Z,-4.13
2019-01-23T17:22:35.161Z,-4.15
2019-01-23T17:25:07.869Z,-4.07
2019-01-23T17:27:39.379Z,-4.10
2019-01-23T17:30:11.617Z,-4.11
2019-01-23T17:32:45.716Z,-3.99
2019-01-23T17:35:17.803Z,-3.98
2019-01-23T17:37:49.007Z,-3.88
2019-01-23T17:40:20.898Z,-3.82
2019-01-23T17:43:00.780Z,-3.74
2019-01-23T17:45:35.384Z,-3.77
2019-01-23T17:48:09.212Z,-3.78
2019-01-23T17:50:40.285Z,-3.86
2019-01-23T17:53:11.722Z,-3.87
2019-01-23T17:55:44.538Z,-3.92
2019-01-23T17:58:16.546Z,-3.75
2019-01-23T18:00:58.094Z,-3.84
2019-01-23T18:03:29.397Z,-3.89
2019-01-23T18:06:00.371Z,-3.78
2019-01-23T18:08:31.500Z,-3.91
2019-01-23T18:11:02.505Z,-3.96
2019-01-23T18:13:33.852Z,-3.87
2019-01-23T18:16:14.538Z,-3.80
2019-01-23T18:18:45.620Z,-3.76
2019-01-23T18:21:16.544Z,-3.90
2019-01-23T18:23:50.552Z,-3.83
2019-01-23T18:26:21.872Z,-3.80
2019-01-23T18:28:54.246Z,-3.58
2019-01-23T18:31:56.540Z,-3.65
2019-01-23T18:35:24.603Z,-3.63
2019-01-23T18:38:37.644Z,-3.52
2019-01-23T18:42:33.755Z,-3.75
2019-01-23T18:45:40.461Z,-3.70
2019-01-23T18:49:26.133Z,-3.54
2019-01-23T18:52:16.229Z,-3.74
2019-01-23T18:54:47.807Z,-3.77
2019-01-23T18:57:23.634Z,-3.95
2019-01-23T18:59:59.599Z,-3.88
2019-01-23T19:02:31.366Z,-3.88
2019-01-23T19:05:06.038Z,-3.79
2019-01-23T19:07:37.324Z,-3.86
2019-01-23T19:10:13.422Z,-3.97
2019-01-23T19:12:46.737Z,-3.90
2019-01-23T19:15:20.983Z,-3.90
2019-01-23T19:17:52.039Z,-3.84
2019-01-23T19:20:23.416Z,-3.94
2019-01-23T19:22:54.371Z,-3.97
2019-01-23T19:25:25.722Z,-3.90
2019-01-23T19:27:59.171Z,-3.94
2019-01-23T19:30:30.441Z,-3.92
2019-01-23T19:33:01.576Z,-3.94
2019-01-23T19:35:32.912Z,-4.02
2019-01-23T19:38:05.624Z,-4.13
2019-01-23T19:40:36.605Z,-4.05
2019-01-23T19:43:08.292Z,-4.10
2019-01-23T19:45:39.237Z,-3.98
2019-01-23T19:48:11.944Z,-4.10
2019-01-23T19:50:42.989Z,-3.92
2019-01-23T19:53:15.951Z,-4.06
2019-01-23T19:55:47.244Z,-4.06
2019-01-23T19:58:18.245Z,-4.23
2019-01-23T20:00:49.571Z,-4.27
2019-01-23T20:03:20.844Z,-4.18
2019-01-23T20:05:51.935Z,-4.23
2019-01-23T20:08:23.213Z,-4.21
2019-01-23T20:10:54.132Z,-4.28
2019-01-23T20:13:25.116Z,-4.10
2019-01-23T20:15:56.090Z,-4.25
2019-01-23T20:18:27.599Z,-4.15
2019-01-23T20:20:58.704Z,-4.17
2019-01-23T20:23:29.754Z,-4.16
2019-01-23T20:26:01.406Z,-4.17
2019-01-23T20:28:32.392Z,-4.22
2019-01-23T20:31:03.363Z,-4.27
2019-01-23T20:33:34.679Z,-4.26
2019-01-23T20:36:05.910Z,-4.31
2019-01-23T20:38:36.876Z,-4.37
2019-01-23T20:41:07.868Z,-4.34
2019-01-23T20:43:39.554Z,-4.36
2019-01-23T20:46:10.862Z,-4.30
2019-01-23T20:48:43.045Z,-4.31
2019-01-23T20:51:14.077Z,-4.38
2019-01-23T20:53:45.351Z,-4.30
2019-01-23T20:56:16.949Z,-4.49
2019-01-23T20:58:48.235Z,-4.48
2019-01-23T21:01:19.205Z,-4.55
2019-01-23T21:03:50.201Z,-4.54
2019-01-23T21:06:21.512Z,-4.50
2019-01-23T21:08:52.473Z,-4.46
2019-01-23T21:11:23.558Z,-4.45
2019-01-23T21:13:54.546Z,-4.57
2019-01-23T21:16:25.570Z,-4.60
2019-01-23T21:18:56.574Z,-4.54
2019-01-23T21:21:28.489Z,-4.45
2019-01-23T21:23:59.426Z,-4.61
2019-01-23T21:26:30.491Z,-4.50
2019-01-23T21:29:01.450Z,-4.66
2019-01-23T21:31:32.430Z,-4.60
2019-01-23T21:34:03.406Z,-4.78
2019-01-23T21:36:34.432Z,-4.78
2019-01-23T21:39:08.897Z,-4.70
2019-01-23T21:41:39.923Z,-4.70
2019-01-23T21:44:10.850Z,-4.71
2019-01-23T21:46:41.820Z,-4.64
2019-01-23T21:49:13.066Z,-4.65
2019-01-23T21:51:44.086Z,-4.66
2019-01-23T21:54:15.041Z,-4.91
2019-01-23T21:56:46.276Z,-4.93
2019-01-23T21:59:17.301Z,-4.91
2019-01-23T22:01:48.201Z,-5.02
2019-01-23T22:04:19.186Z,-4.89
2019-01-23T22:06:50.107Z,-5.06
2019-01-23T22:09:21.062Z,-5.11
2019-01-23T22:11:52.016Z,-5.21
2019-01-23T22:14:22.956Z,-5.06
2019-01-23T22:16:54.219Z,-5.16
2019-01-23T22:19:25.202Z,-5.22
2019-01-23T22:21:56.158Z,-5.24
2019-01-23T22:24:27.224Z,-5.15
2019-01-23T22:26:58.199Z,-5.22
2019-01-23T22:29:29.155Z,-5.16
2019-01-23T22:32:00.376Z,-5.03
2019-01-23T22:34:31.717Z,-5.12
2019-01-23T22:37:02.922Z,-5.08
2019-01-23T22:39:33.870Z,-5.16
2019-01-23T22:42:05.221Z,-5.43
2019-01-23T22:44:36.756Z,-5.35
2019-01-23T22:47:07.903Z,-5.48
2019-01-23T22:49:39.229Z,-5.37
2019-01-23T22:52:10.139Z,-5.37
2019-01-23T22:54:41.148Z,-5.41
2019-01-23T22:57:12.091Z,-5.31
2019-01-23T22:59:43.051Z,-5.25
2019-01-23T23:02:14.359Z,-5.59
2019-01-23T23:04:45.380Z,-5.49
2019-01-23T23:07:16.594Z,-5.72
2019-01-23T23:09:47.526Z,-5.85
2019-01-23T23:12:18.489Z,-5.93
2019-01-23T23:14:49.438Z,-5.88
2019-01-23T23:17:20.381Z,-5.81
2019-01-23T23:19:51.356Z,-5.96
2019-01-23T23:22:22.305Z,-6.02
2019-01-23T23:24:53.261Z,-6.09
2019-01-23T23:27:24.186Z,-6.09
2019-01-23T23:29:55.108Z,-6.33
2019-01-23T23:32:26.117Z,-6.28
2019-01-23T23:34:57.094Z,-6.34
2019-01-23T23:37:28.116Z,-6.64
2019-01-23T23:39:59.239Z,-6.58
2019-01-23T23:42:30.278Z,-6.57
2019-01-23T23:47:32.188Z,-6.64
2019-01-23T23:50:03.130Z,-6.58
2019-01-23T23:52:34.114Z,-6.57
2019-01-23T23:55:05.640Z,-6.48
2019-01-23T23:57:36.620Z,-6.46
